• Join FlightAware (Why Join?)
  • Login
  • US Flag 
04:06AM EDT


 

Airport Tracker/Info


-or-


 

Live Flight TrackerFlight Track Log ✈ EJA922 ✈ 18-Jan-2014 ✈ KPSP - KPHX

Flight Track Log - Related Links

Times and Time Zones

All times are in EST time to prevent confusion due to time zone crossing. See the EJA922 flight status page for this flight to view local times or setup timezone preferences in your user account.

Time Position Orientation Groundspeed Altitude Reporting Facility
EST Latitude Longitude Course Direction KTS MPH feet Rate Location/Type
02:26PM 33.8500 -116.5167 320° Northwest 197 227 2,000  Level Southern California TRACON
02:27PM 33.9000 -116.5667 320° Northwest 225 259 7,100 4,200 Climbing Southern California TRACON
02:29PM 33.9378 -116.4939 58° Northeast 280 322 11,900 2,700 Climbing Los Angeles Center
02:30PM 33.9181 -116.3822 102° East 344 396 13,500 1,560 Climbing Los Angeles Center
02:31PM 33.8925 -116.2519 103° East 388 447 15,200 1,860 Climbing Los Angeles Center
02:32PM 33.8664 -116.1158 103° East 410 472 17,400 1,740 Climbing Los Angeles Center
02:33PM 33.8394 -115.9764 103° East 422 486 18,900 720 Climbing Los Angeles Center
02:34PM 33.8114 -115.8344 103° East 432 497 19,000  Climbing Los Angeles Center
02:35PM 33.7833 -115.6878 103° East 442 509 19,000  Level Los Angeles Center
02:36PM 33.7472 -115.5106 104° East 452 520 19,000  Level Los Angeles Center
02:37PM 33.7203 -115.3711 103° East 438 504 19,000  Level Los Angeles Center
02:38PM 33.6917 -115.2292 104° East 435 501 19,000  Level Los Angeles Center
02:39PM 33.6736 -115.0858 99° East 433 498 19,000  Level Los Angeles Center
02:40PM 33.6703 -114.9469 92° East 420 483 19,000  Level Los Angeles Center
02:41PM 33.6622 -114.8092 94° East 414 476 19,000  Level Los Angeles Center
02:42PM 33.6547 -114.6456 93° East 409 471 19,000  Level Los Angeles Center
02:43PM 33.6475 -114.5100 94° East 406 467 19,000  Level Los Angeles Center
02:44PM 33.6414 -114.3742 93° East 407 468 19,000  Level Los Angeles Center
02:45PM 33.6333 -114.2642 95° East 405 466 19,000  Level Albuquerque Center
02:46PM 33.6292 -114.1228 92° East 411 473 19,000  Level Albuquerque Center
02:47PM 33.6172 -113.9597 95° East 412 474 19,000  Level Albuquerque Center
02:48PM 33.5953 -113.8297 101° East 403 464 19,000  Level Albuquerque Center
02:49PM 33.5550 -113.7014 111° Southeast 409 471 19,000  Level Albuquerque Center
02:50PM 33.5156 -113.5733 110° East 411 473 19,000 -780 Level Albuquerque Center
02:51PM 33.4758 -113.4431 110° East 414 476 17,500 -1,680 Descending Albuquerque Center
02:52PM 33.4364 -113.3167 110° East 408 470 15,600 -1,260 Descending Albuquerque Center
02:53PM 33.3972 -113.1919 111° Southeast 404 465 15,000 -300 Descending Albuquerque Center
02:54PM 33.3531 -113.0500 110° East 385 443 15,000 -360 Level Albuquerque Center
02:55PM 33.3186 -112.9411 111° Southeast 363 418 14,300 -1,260 Descending Albuquerque Center
02:56PM 33.2883 -112.8328 108° East 349 402 12,500 -1,680 Descending Albuquerque Center
02:57PM 33.3106 -112.7381 74° East 306 352 10,900 -1,380 Descending Albuquerque Center
02:59PM 33.3422 -112.6556 65° Northeast 281 323 9,700 -1,080 Descending Albuquerque Center
03:00PM 33.3783 -112.5639 65° Northeast 270 311 8,700 -960 Descending Albuquerque Center
03:01PM 33.4089 -112.4806 66° East 273 314 7,800 -1,020 Descending Albuquerque Center
03:02PM 33.4308 -112.4022 71° East 253 291 6,700 -1,020 Descending Albuquerque Center
03:03PM 33.4289 -112.3203 92° East 246 283 5,700 -1,020 Descending Albuquerque Center
03:04PM 33.4292 -112.2492 90° East 221 254 4,700 -960 Descending Albuquerque Center
03:05PM 33.4289 -112.1875 90° East 192 221 3,800 -900 Descending Albuquerque Center
03:06PM 33.4286 -112.1358 90° East 160 184 2,900 -900 Descending Albuquerque Center
03:07PM 33.4333 -112.1000 81° East 134 154 2,200 -780 Descending Phoenix TRACON
03:08PM 33.4333 -112.0333 90° East 131 151 1,400 -720 Descending Phoenix TRACON